Time;durP1;ratioP1;P1;durP2;ratioP2;P2;SDS_P1;SDS_P2;PMS_P1;PMS_P2;Temp;Humidity;BMP_temperature;BMP_pressure;BME280_temperature;BME280_humidity;BME280_pressure;Samples;Min_cycle;Max_cycle;Signal;HPM_P1;HPM_P2
2024/04/16 00:02:03;;;;;;;0.50;0.50;;;;;;;;;;5332320;26;20274;-84
2024/04/16 00:04:30;;;;;;;1.65;1.55;;;;;;;;;;5358597;26;20223;-82
2024/04/16 00:06:58;;;;;;;0.70;0.70;;;;;;;;;;5358085;26;20216;-86
2024/04/16 00:09:27;;;;;;;0.68;0.68;;;;;;;;;;5356311;26;20297;-83
2024/04/16 00:11:55;;;;;;;0.50;0.50;;;;;;;;;;5320530;26;20223;-83
2024/04/16 00:14:22;;;;;;;0.75;0.75;;;;;;;;;;5353427;26;20221;-82
2024/04/16 00:16:49;;;;;;;0.75;0.75;;;;;;;;;;5362612;26;20290;-83
2024/04/16 00:19:17;;;;;;;1.60;1.52;;;;;;;;;;5364780;26;20235;-81
2024/04/16 00:21:44;;;;;;;0.50;0.50;;;;;;;;;;5355762;26;20215;-83
2024/04/16 00:24:12;;;;;;;1.00;1.00;;;;;;;;;;5367692;26;20219;-84
2024/04/16 00:26:40;;;;;;;0.50;0.50;;;;;;;;;;5362687;26;20219;-81
2024/04/16 00:29:07;;;;;;;0.60;0.60;;;;;;;;;;5335513;26;20283;-81
2024/04/16 00:31:35;;;;;;;0.98;0.85;;;;;;;;;;5346480;26;20227;-80
2024/04/16 00:34:06;;;;;;;0.80;0.80;;;;;;;;;;5370653;26;20223;-80
2024/04/16 00:36:33;;;;;;;0.90;0.90;;;;;;;;;;5369667;26;20231;-82
2024/04/16 00:39:01;;;;;;;0.70;0.70;;;;;;;;;;5367995;26;20364;-82
2024/04/16 00:41:29;;;;;;;0.70;0.70;;;;;;;;;;5364680;26;20223;-82
2024/04/16 00:43:56;;;;;;;0.50;0.50;;;;;;;;;;5331112;26;20219;-84
2024/04/16 00:46:24;;;;;;;0.60;0.60;;;;;;;;;;5336125;26;20219;-83
2024/04/16 00:48:52;;;;;;;0.90;0.88;;;;;;;;;;5365977;26;20258;-84
2024/04/16 00:51:19;;;;;;;0.60;0.60;;;;;;;;;;5363594;26;20223;-80
2024/04/16 00:53:47;;;;;;;0.60;0.60;;;;;;;;;;5346302;26;20258;-82
2024/04/16 00:56:15;;;;;;;0.60;0.60;;;;;;;;;;5356076;26;20223;-80
2024/04/16 00:58:42;;;;;;;0.60;0.60;;;;;;;;;;5356796;26;20275;-81
2024/04/16 01:01:10;;;;;;;0.60;0.60;;;;;;;;;;5328097;26;20529;-85
2024/04/16 01:03:38;;;;;;;0.60;0.60;;;;;;;;;;5351253;26;20238;-84
2024/04/16 01:06:05;;;;;;;0.60;0.60;;;;;;;;;;5330444;26;20234;-81
2024/04/16 01:08:33;;;;;;;3.03;2.72;;;;;;;;;;5356883;26;20293;-82
2024/04/16 01:11:00;;;;;;;0.50;0.50;;;;;;;;;;5365614;26;20367;-82
2024/04/16 01:13:28;;;;;;;0.60;0.60;;;;;;;;;;5364389;26;20226;-82
2024/04/16 01:15:55;;;;;;;2.45;2.05;;;;;;;;;;5355023;26;20387;-81
2024/04/16 01:18:23;;;;;;;0.60;0.60;;;;;;;;;;5364328;26;20306;-82
2024/04/16 01:20:51;;;;;;;0.60;0.60;;;;;;;;;;5364916;26;20257;-82
2024/04/16 01:23:18;;;;;;;0.60;0.60;;;;;;;;;;5351645;26;20285;-82
2024/04/16 01:25:46;;;;;;;0.60;0.60;;;;;;;;;;5365781;26;20265;-80
2024/04/16 01:28:13;;;;;;;0.60;0.60;;;;;;;;;;5365161;26;20305;-82
2024/04/16 01:30:41;;;;;;;1.48;1.38;;;;;;;;;;5350739;26;20256;-85
2024/04/16 01:33:08;;;;;;;0.70;0.70;;;;;;;;;;5352207;26;20269;-83
2024/04/16 01:35:36;;;;;;;0.60;0.60;;;;;;;;;;5354190;26;20225;-81
2024/04/16 01:38:04;;;;;;;0.60;0.60;;;;;;;;;;5356631;26;20296;-81
2024/04/16 01:40:31;;;;;;;0.50;0.50;;;;;;;;;;5362870;26;20293;-85
2024/04/16 01:42:59;;;;;;;0.60;0.60;;;;;;;;;;5365147;26;20293;-83
2024/04/16 01:45:26;;;;;;;0.60;0.60;;;;;;;;;;5337142;26;20229;-83
2024/04/16 01:47:54;;;;;;;0.60;0.60;;;;;;;;;;5364867;26;20606;-82
2024/04/16 01:50:22;;;;;;;0.60;0.60;;;;;;;;;;5361678;26;20217;-80
2024/04/16 01:52:49;;;;;;;0.50;0.50;;;;;;;;;;5348301;26;20264;-82
2024/04/16 01:55:16;;;;;;;0.50;0.50;;;;;;;;;;5328229;26;20257;-87
2024/04/16 01:57:44;;;;;;;0.60;0.60;;;;;;;;;;5363323;26;20304;-81
2024/04/16 02:00:12;;;;;;;0.60;0.60;;;;;;;;;;5332622;26;20224;-82
2024/04/16 02:02:39;;;;;;;0.60;0.60;;;;;;;;;;5332744;26;20295;-84
2024/04/16 02:05:07;;;;;;;0.65;0.65;;;;;;;;;;5362094;26;20485;-80
2024/04/16 02:07:35;;;;;;;0.60;0.60;;;;;;;;;;5331998;26;20269;-79
2024/04/16 02:10:05;;;;;;;0.80;0.80;;;;;;;;;;5333764;26;20303;-81
2024/04/16 02:12:33;;;;;;;0.60;0.60;;;;;;;;;;5330376;26;20758;-81
2024/04/16 02:15:00;;;;;;;0.60;0.60;;;;;;;;;;5361790;26;20266;-83
2024/04/16 02:17:28;;;;;;;1.08;1.08;;;;;;;;;;5361686;26;20252;-84
2024/04/16 02:20:29;;;;;;;0.80;0.80;;;;;;;;;;5322292;26;20225;-80
2024/04/16 02:22:57;;;;;;;1.08;1.08;;;;;;;;;;5350311;26;20489;-86
2024/04/16 02:25:24;;;;;;;0.88;0.88;;;;;;;;;;5364538;26;20256;-80
2024/04/16 02:27:52;;;;;;;0.60;0.60;;;;;;;;;;5351107;26;20292;-83
2024/04/16 02:30:19;;;;;;;0.60;0.60;;;;;;;;;;5334673;26;20284;-83
2024/04/16 02:32:49;;;;;;;0.60;0.60;;;;;;;;;;5321180;26;20310;-84
2024/04/16 02:35:16;;;;;;;1.50;1.13;;;;;;;;;;5364269;26;20258;-80
2024/04/16 02:37:48;;;;;;;0.50;0.50;;;;;;;;;;5336392;26;20267;-83
2024/04/16 02:40:16;;;;;;;1.38;1.27;;;;;;;;;;5331983;26;20261;-84
2024/04/16 02:42:43;;;;;;;0.50;0.50;;;;;;;;;;5326970;26;20269;-83
2024/04/16 02:45:11;;;;;;;0.60;0.60;;;;;;;;;;5364272;26;20314;-84
2024/04/16 02:47:38;;;;;;;0.50;0.50;;;;;;;;;;5328214;26;20688;-85
2024/04/16 02:50:06;;;;;;;0.65;0.65;;;;;;;;;;5357408;26;20224;-84
2024/04/16 02:52:36;;;;;;;2.50;2.35;;;;;;;;;;5358885;26;20258;-85
2024/04/16 02:55:03;;;;;;;0.50;0.50;;;;;;;;;;5361766;26;20215;-85
2024/04/16 02:57:31;;;;;;;1.35;1.25;;;;;;;;;;5359351;26;20460;-86
2024/04/16 02:59:58;;;;;;;0.60;0.60;;;;;;;;;;5356223;26;20219;-88
2024/04/16 03:02:26;;;;;;;1.38;1.17;;;;;;;;;;5326830;26;20302;-82
2024/04/16 03:04:54;;;;;;;0.65;0.65;;;;;;;;;;5355293;26;20219;-85
2024/04/16 03:07:21;;;;;;;0.98;0.95;;;;;;;;;;5351219;26;20474;-83
2024/04/16 03:09:49;;;;;;;1.25;1.15;;;;;;;;;;5357047;26;20390;-84
2024/04/16 03:12:17;;;;;;;0.60;0.60;;;;;;;;;;5364765;26;20269;-85
2024/04/16 03:14:44;;;;;;;0.57;0.57;;;;;;;;;;5359927;26;20536;-85
2024/04/16 03:17:11;;;;;;;1.27;1.17;;;;;;;;;;5370335;26;20223;-83
2024/04/16 03:19:39;;;;;;;0.65;0.60;;;;;;;;;;5357029;26;20236;-84
2024/04/16 03:22:06;;;;;;;0.50;0.50;;;;;;;;;;5336543;26;20224;-87
2024/04/16 03:24:34;;;;;;;1.38;0.82;;;;;;;;;;5361138;26;20227;-83
2024/04/16 03:27:01;;;;;;;0.70;0.70;;;;;;;;;;5368714;26;20251;-82
2024/04/16 03:29:29;;;;;;;0.70;0.70;;;;;;;;;;5338822;26;20270;-83
2024/04/16 03:31:57;;;;;;;0.50;0.50;;;;;;;;;;5367924;26;20219;-80
2024/04/16 03:34:25;;;;;;;0.60;0.60;;;;;;;;;;5369066;26;20227;-84
2024/04/16 03:36:53;;;;;;;0.82;0.82;;;;;;;;;;5358048;26;20301;-87
2024/04/16 03:39:20;;;;;;;0.77;0.77;;;;;;;;;;5355630;26;20258;-82
2024/04/16 03:41:48;;;;;;;0.60;0.60;;;;;;;;;;5325156;26;20215;-83
2024/04/16 03:44:15;;;;;;;0.60;0.60;;;;;;;;;;5354372;26;20265;-82
2024/04/16 03:46:43;;;;;;;0.70;0.70;;;;;;;;;;5354048;26;20254;-83
2024/04/16 03:49:10;;;;;;;0.52;0.52;;;;;;;;;;5340178;26;20309;-85
2024/04/16 03:51:38;;;;;;;0.50;0.50;;;;;;;;;;5350032;26;20224;-82
2024/04/16 03:54:05;;;;;;;2.67;2.45;;;;;;;;;;5354091;26;20250;-83
2024/04/16 03:56:33;;;;;;;0.60;0.60;;;;;;;;;;5347586;26;20842;-81
2024/04/16 03:59:16;;;;;;;1.02;1.02;;;;;;;;;;5348051;26;20272;-85
2024/04/16 04:01:43;;;;;;;0.45;0.45;;;;;;;;;;5335136;26;20227;-82
2024/04/16 04:04:11;;;;;;;0.80;0.80;;;;;;;;;;5368939;26;20231;-84
2024/04/16 04:06:39;;;;;;;1.83;1.73;;;;;;;;;;5367519;26;20223;-84
2024/04/16 04:09:06;;;;;;;0.50;0.50;;;;;;;;;;5352367;26;20278;-85
2024/04/16 04:11:35;;;;;;;0.80;0.80;;;;;;;;;;5354252;26;20488;-85
2024/04/16 04:14:02;;;;;;;0.60;0.60;;;;;;;;;;5311988;26;20224;-85
2024/04/16 04:16:30;;;;;;;1.83;1.73;;;;;;;;;;5318175;26;20358;-85
2024/04/16 04:18:58;;;;;;;0.80;0.80;;;;;;;;;;5352544;26;20237;-82
2024/04/16 04:21:26;;;;;;;0.88;0.88;;;;;;;;;;5353489;26;20476;-84
2024/04/16 04:23:53;;;;;;;0.88;0.88;;;;;;;;;;5351838;26;20228;-85
2024/04/16 04:26:22;;;;;;;0.65;0.65;;;;;;;;;;5351573;26;20626;-83
2024/04/16 04:28:49;;;;;;;0.50;0.50;;;;;;;;;;5343112;26;20283;-82
2024/04/16 04:31:18;;;;;;;0.70;0.70;;;;;;;;;;5346738;26;20235;-84
2024/04/16 04:33:46;;;;;;;1.60;1.50;;;;;;;;;;5345675;26;20468;-85
2024/04/16 04:36:14;;;;;;;1.05;1.05;;;;;;;;;;5314282;26;20212;-86
2024/04/16 04:38:41;;;;;;;0.68;0.68;;;;;;;;;;5357292;26;20539;-84
2024/04/16 04:41:12;;;;;;;1.27;1.02;;;;;;;;;;5356686;26;20305;-82
2024/04/16 04:43:40;;;;;;;1.27;1.17;;;;;;;;;;5353594;26;20251;-81
2024/04/16 04:46:10;;;;;;;0.80;0.80;;;;;;;;;;5345976;26;20233;-81
2024/04/16 04:48:38;;;;;;;0.70;0.70;;;;;;;;;;5325081;26;20305;-82
2024/04/16 04:51:05;;;;;;;0.95;0.95;;;;;;;;;;5325104;26;20299;-85
2024/04/16 04:53:33;;;;;;;0.70;0.70;;;;;;;;;;5355637;26;20262;-83
2024/04/16 04:56:00;;;;;;;0.75;0.75;;;;;;;;;;5354806;26;20260;-85
2024/04/16 04:58:29;;;;;;;2.83;2.05;;;;;;;;;;5362765;26;20219;-86
2024/04/16 05:00:57;;;;;;;0.60;0.60;;;;;;;;;;5360804;26;20272;-89
2024/04/16 05:03:24;;;;;;;0.60;0.60;;;;;;;;;;5365095;26;20291;-87
2024/04/16 05:05:51;;;;;;;0.60;0.60;;;;;;;;;;5342083;26;20298;-85
2024/04/16 05:08:19;;;;;;;0.70;0.70;;;;;;;;;;5448470;21;20292;-86
2024/04/16 05:10:51;;;;;;;0.70;0.70;;;;;;;;;;5343015;26;20228;-84
2024/04/16 05:13:19;;;;;;;0.50;0.50;;;;;;;;;;5304925;26;20314;-85
2024/04/16 05:15:46;;;;;;;0.70;0.70;;;;;;;;;;5337531;26;20777;-86
2024/04/16 05:18:14;;;;;;;0.60;0.60;;;;;;;;;;5329094;26;20222;-86
2024/04/16 05:20:47;;;;;;;0.50;0.50;;;;;;;;;;5329265;26;20383;-90
2024/04/16 05:23:14;;;;;;;0.60;0.60;;;;;;;;;;5296001;26;20219;-89
2024/04/16 05:25:42;;;;;;;0.82;0.82;;;;;;;;;;5335984;26;20299;-89
2024/04/16 05:28:09;;;;;;;1.00;1.00;;;;;;;;;;5324149;26;20263;-86
2024/04/16 05:30:39;;;;;;;0.93;0.93;;;;;;;;;;5323544;26;20219;-84
2024/04/16 05:33:06;;;;;;;0.80;0.80;;;;;;;;;;5293197;27;20265;-88
2024/04/16 05:35:34;;;;;;;1.38;1.25;;;;;;;;;;5296686;27;20468;-81
2024/04/16 05:38:01;;;;;;;0.70;0.70;;;;;;;;;;5294060;27;20595;-85
2024/04/16 05:40:29;;;;;;;0.60;0.60;;;;;;;;;;5322902;27;20282;-87
2024/04/16 05:42:56;;;;;;;1.00;1.00;;;;;;;;;;5297127;27;20215;-82
2024/04/16 05:45:24;;;;;;;0.60;0.60;;;;;;;;;;5328285;26;20569;-85
2024/04/16 05:47:51;;;;;;;1.30;1.30;;;;;;;;;;5309075;27;20275;-90
2024/04/16 05:50:19;;;;;;;0.80;0.80;;;;;;;;;;5342117;26;20223;-88
2024/04/16 05:52:46;;;;;;;0.60;0.60;;;;;;;;;;5354760;26;20271;-85
2024/04/16 05:55:14;;;;;;;1.80;1.80;;;;;;;;;;5331202;26;20219;-86
2024/04/16 05:57:42;;;;;;;0.80;0.80;;;;;;;;;;5310674;26;20294;-91
2024/04/16 06:00:10;;;;;;;0.70;0.70;;;;;;;;;;5332010;26;20220;-84
2024/04/16 06:05:11;;;;;;;0.60;0.60;;;;;;;;;;5279691;27;20267;-83
2024/04/16 06:07:39;;;;;;;0.63;0.63;;;;;;;;;;5285454;27;20271;-87
2024/04/16 06:10:07;;;;;;;0.60;0.60;;;;;;;;;;5280600;27;20221;-89
2024/04/16 06:12:35;;;;;;;1.33;1.33;;;;;;;;;;5280986;27;20239;-84
2024/04/16 06:15:03;;;;;;;0.80;0.80;;;;;;;;;;5300349;21;20336;-84
2024/04/16 06:17:30;;;;;;;0.70;0.70;;;;;;;;;;5298173;26;20272;-86
2024/04/16 06:19:58;;;;;;;0.60;0.60;;;;;;;;;;5294666;26;20285;-85
2024/04/16 06:22:25;;;;;;;0.70;0.70;;;;;;;;;;5295372;27;20286;-85
2024/04/16 06:24:53;;;;;;;0.70;0.70;;;;;;;;;;5261613;27;20347;-85
2024/04/16 06:27:20;;;;;;;0.70;0.70;;;;;;;;;;5281912;27;20217;-85
2024/04/16 06:29:48;;;;;;;0.70;0.70;;;;;;;;;;5279795;26;20285;-86
2024/04/16 06:32:16;;;;;;;1.13;1.13;;;;;;;;;;5288189;27;20408;-86
2024/04/16 06:34:43;;;;;;;3.28;3.08;;;;;;;;;;5289195;27;20416;-86
2024/04/16 06:37:11;;;;;;;0.68;0.68;;;;;;;;;;5288278;27;20261;-85
2024/04/16 06:39:39;;;;;;;2.00;1.98;;;;;;;;;;5289538;27;20227;-88
2024/04/16 06:42:07;;;;;;;4.13;2.10;;;;;;;;;;5269686;27;20270;-84
2024/04/16 06:44:34;;;;;;;0.93;0.93;;;;;;;;;;5286920;27;20269;-85
2024/04/16 06:47:02;;;;;;;0.80;0.80;;;;;;;;;;5291642;27;20214;-87
2024/04/16 06:49:31;;;;;;;0.70;0.70;;;;;;;;;;5269097;27;20257;-88
2024/04/16 06:51:58;;;;;;;0.80;0.80;;;;;;;;;;5271152;27;20257;-82
2024/04/16 06:54:26;;;;;;;0.60;0.60;;;;;;;;;;5251028;27;20229;-84
2024/04/16 06:56:53;;;;;;;0.70;0.70;;;;;;;;;;5289020;26;20242;-86
2024/04/16 06:59:21;;;;;;;0.80;0.80;;;;;;;;;;5297700;26;20234;-88
2024/04/16 07:01:48;;;;;;;0.80;0.80;;;;;;;;;;5295331;26;20348;-85
2024/04/16 07:04:16;;;;;;;0.60;0.60;;;;;;;;;;5241888;27;20218;-88
2024/04/16 07:06:43;;;;;;;0.60;0.60;;;;;;;;;;5269095;27;20221;-84
2024/04/16 07:09:11;;;;;;;0.70;0.70;;;;;;;;;;5267093;27;20265;-87
2024/04/16 07:11:39;;;;;;;0.60;0.60;;;;;;;;;;5276129;27;20276;-88
2024/04/16 07:14:07;;;;;;;0.60;0.60;;;;;;;;;;5257380;27;20229;-84
2024/04/16 07:16:34;;;;;;;1.80;1.70;;;;;;;;;;5246206;27;20229;-85
2024/04/16 07:19:02;;;;;;;0.60;0.60;;;;;;;;;;5242518;27;20225;-88
2024/04/16 07:21:31;;;;;;;1.27;1.27;;;;;;;;;;5291713;27;20293;-86
2024/04/16 07:23:58;;;;;;;0.68;0.68;;;;;;;;;;5285189;27;20252;-87
2024/04/16 07:26:26;;;;;;;0.60;0.60;;;;;;;;;;5260527;27;20221;-85
2024/04/16 07:28:53;;;;;;;0.70;0.70;;;;;;;;;;5289736;27;20382;-85
2024/04/16 07:31:21;;;;;;;0.80;0.80;;;;;;;;;;5252948;27;20293;-86
2024/04/16 07:34:04;;;;;;;0.70;0.70;;;;;;;;;;5265045;27;20218;-85
2024/04/16 07:36:34;;;;;;;0.70;0.70;;;;;;;;;;5251534;27;20529;-84
2024/04/16 07:39:01;;;;;;;0.98;0.98;;;;;;;;;;5259486;26;20268;-86
2024/04/16 07:41:29;;;;;;;0.70;0.70;;;;;;;;;;5261453;27;20278;-86
2024/04/16 07:43:57;;;;;;;0.60;0.60;;;;;;;;;;5288340;27;20240;-88
2024/04/16 07:46:24;;;;;;;0.90;0.90;;;;;;;;;;5261940;27;20289;-83
2024/04/16 07:48:54;;;;;;;0.63;0.63;;;;;;;;;;5247674;27;20225;-87
2024/04/16 07:51:25;;;;;;;0.70;0.70;;;;;;;;;;5260167;27;20264;-84
2024/04/16 07:53:52;;;;;;;0.70;0.70;;;;;;;;;;5273369;27;20794;-87
2024/04/16 07:56:20;;;;;;;0.70;0.70;;;;;;;;;;5251720;27;20218;-83
2024/04/16 07:58:47;;;;;;;0.70;0.70;;;;;;;;;;5273609;27;20222;-81
2024/04/16 08:01:16;;;;;;;0.80;0.80;;;;;;;;;;5255025;27;20225;-82
2024/04/16 08:03:44;;;;;;;0.80;0.80;;;;;;;;;;5258487;27;20229;-84
2024/04/16 08:06:12;;;;;;;0.80;0.80;;;;;;;;;;5288611;27;20218;-84
2024/04/16 08:08:39;;;;;;;0.70;0.70;;;;;;;;;;5252329;27;20249;-86
2024/04/16 08:11:07;;;;;;;1.58;1.52;;;;;;;;;;5283200;27;20256;-89
2024/04/16 08:13:35;;;;;;;0.70;0.70;;;;;;;;;;5293407;27;20263;-90
2024/04/16 08:16:03;;;;;;;0.80;0.80;;;;;;;;;;5252093;27;20223;-83
2024/04/16 08:18:30;;;;;;;0.75;0.75;;;;;;;;;;5296048;27;20219;-87
2024/04/16 08:20:58;;;;;;;0.80;0.80;;;;;;;;;;5280972;27;20227;-82
2024/04/16 08:23:25;;;;;;;0.70;0.70;;;;;;;;;;5282112;27;20280;-83
2024/04/16 08:26:03;;;;;;;0.70;0.70;;;;;;;;;;5293721;27;20458;-87
2024/04/16 08:28:35;;;;;;;0.80;0.80;;;;;;;;;;5280312;27;20596;-85
2024/04/16 08:31:05;;;;;;;0.70;0.70;;;;;;;;;;5264679;27;20482;-85
2024/04/16 08:33:32;;;;;;;0.83;0.83;;;;;;;;;;5261470;27;20469;-87
2024/04/16 08:36:00;;;;;;;0.80;0.80;;;;;;;;;;5292326;27;20502;-82
2024/04/16 08:38:28;;;;;;;0.70;0.70;;;;;;;;;;5263217;27;20508;-86
2024/04/16 08:40:56;;;;;;;0.80;0.80;;;;;;;;;;5272288;27;20689;-86
2024/04/16 08:43:25;;;;;;;1.10;1.10;;;;;;;;;;5291400;27;20479;-86
2024/04/16 08:45:54;;;;;;;0.90;0.90;;;;;;;;;;5279327;27;20454;-88
2024/04/16 08:48:22;;;;;;;0.90;0.90;;;;;;;;;;5278107;27;20509;-84
2024/04/16 08:50:50;;;;;;;0.97;0.97;;;;;;;;;;5258666;27;20457;-82
2024/04/16 08:53:19;;;;;;;0.80;0.80;;;;;;;;;;5291016;27;20516;-83
2024/04/16 08:55:46;;;;;;;0.80;0.80;;;;;;;;;;5265029;27;20465;-82
2024/04/16 08:58:15;;;;;;;1.43;1.43;;;;;;;;;;5298075;26;20517;-86
2024/04/16 09:00:43;;;;;;;0.83;0.83;;;;;;;;;;5270741;26;20432;-90
2024/04/16 09:03:11;;;;;;;1.77;1.67;;;;;;;;;;5267649;26;20535;-87
2024/04/16 09:05:39;;;;;;;0.80;0.80;;;;;;;;;;5297861;26;20652;-84
2024/04/16 09:08:07;;;;;;;0.97;0.97;;;;;;;;;;5262639;27;20415;-87
2024/04/16 09:10:35;;;;;;;0.80;0.80;;;;;;;;;;5248311;27;20447;-84
2024/04/16 09:13:11;;;;;;;0.80;0.80;;;;;;;;;;5291740;27;20438;-84
2024/04/16 09:15:40;;;;;;;0.97;0.97;;;;;;;;;;5271457;27;20460;-86
2024/04/16 09:18:08;;;;;;;0.90;0.90;;;;;;;;;;5259744;27;20541;-86
2024/04/16 09:20:36;;;;;;;8.23;3.17;;;;;;;;;;5292295;27;20447;-85
2024/04/16 09:23:03;;;;;;;0.90;0.90;;;;;;;;;;5278713;27;20454;-88
2024/04/16 09:25:38;;;;;;;0.87;0.87;;;;;;;;;;5295303;27;20507;-86
2024/04/16 09:28:06;;;;;;;0.90;0.90;;;;;;;;;;5273055;27;20481;-87
2024/04/16 09:30:34;;;;;;;0.90;0.90;;;;;;;;;;5285882;27;20444;-84
2024/04/16 09:33:04;;;;;;;0.80;0.80;;;;;;;;;;5296518;26;20852;-87
2024/04/16 09:35:42;;;;;;;0.90;0.90;;;;;;;;;;5294153;26;20432;-85
2024/04/16 09:38:10;;;;;;;1.00;1.00;;;;;;;;;;5269645;27;20528;-86
2024/04/16 09:40:37;;;;;;;0.70;0.70;;;;;;;;;;5295720;26;20468;-84
2024/04/16 09:43:05;;;;;;;0.80;0.80;;;;;;;;;;5296941;26;20611;-87
2024/04/16 09:45:35;;;;;;;0.85;0.85;;;;;;;;;;5285076;27;20521;-86
2024/04/16 09:48:03;;;;;;;1.30;1.20;;;;;;;;;;5286946;27;20523;-83
2024/04/16 09:50:35;;;;;;;0.75;0.75;;;;;;;;;;5278998;27;20222;-87
2024/04/16 09:53:20;;;;;;;0.80;0.80;;;;;;;;;;5251732;27;20352;-86
2024/04/16 09:55:49;;;;;;;2.78;1.85;;;;;;;;;;5281698;27;20275;-86
2024/04/16 09:58:17;;;;;;;0.80;0.80;;;;;;;;;;5261038;27;20266;-83
2024/04/16 10:00:46;;;;;;;1.23;1.23;;;;;;;;;;5253297;27;20238;-83
2024/04/16 10:03:14;;;;;;;0.95;0.95;;;;;;;;;;5288893;27;20232;-84
2024/04/16 10:05:41;;;;;;;1.00;1.00;;;;;;;;;;5292293;27;20220;-85
2024/04/16 10:08:09;;;;;;;0.80;0.80;;;;;;;;;;5289952;27;20227;-84
2024/04/16 10:10:40;;;;;;;0.90;0.90;;;;;;;;;;5278524;27;20472;-83
2024/04/16 10:13:08;;;;;;;0.90;0.90;;;;;;;;;;5260110;27;20458;-83
2024/04/16 10:15:35;;;;;;;0.90;0.90;;;;;;;;;;5251534;27;20509;-85
2024/04/16 10:18:04;;;;;;;0.80;0.80;;;;;;;;;;5276187;27;20472;-81
2024/04/16 10:20:33;;;;;;;0.70;0.70;;;;;;;;;;5290465;27;20432;-83
2024/04/16 10:25:33;;;;;;;0.90;0.90;;;;;;;;;;5322581;26;20256;-88
2024/04/16 10:28:02;;;;;;;1.00;1.00;;;;;;;;;;5246469;27;20462;-89
2024/04/16 10:30:31;;;;;;;0.90;0.90;;;;;;;;;;5277280;27;20589;-84
2024/04/16 10:32:59;;;;;;;0.80;0.80;;;;;;;;;;5269694;27;20456;-85
2024/04/16 10:35:33;;;;;;;1.00;1.00;;;;;;;;;;5293264;27;20705;-84
2024/04/16 10:38:03;;;;;;;0.90;0.90;;;;;;;;;;5257021;27;20436;-87
2024/04/16 10:40:34;;;;;;;1.10;1.10;;;;;;;;;;5290575;27;20532;-85
2024/04/16 10:43:03;;;;;;;1.10;1.10;;;;;;;;;;5280418;27;20448;-80
2024/04/16 10:45:30;;;;;;;0.90;0.90;;;;;;;;;;5285184;27;20461;-88
2024/04/16 10:48:00;;;;;;;1.00;1.00;;;;;;;;;;5299827;27;20494;-88
2024/04/16 10:50:29;;;;;;;0.97;0.97;;;;;;;;;;5248070;27;20541;-83
2024/04/16 10:52:57;;;;;;;0.80;0.80;;;;;;;;;;5316850;27;20587;-87
2024/04/16 10:55:25;;;;;;;0.90;0.90;;;;;;;;;;5261105;27;20503;-85
2024/04/16 10:57:53;;;;;;;1.00;1.00;;;;;;;;;;5303050;27;20506;-86
2024/04/16 11:00:23;;;;;;;0.90;0.90;;;;;;;;;;5303861;27;20578;-87
2024/04/16 11:02:54;;;;;;;0.80;0.80;;;;;;;;;;5299669;27;20449;-84
2024/04/16 11:05:21;;;;;;;0.80;0.80;;;;;;;;;;5262917;27;20455;-89
2024/04/16 11:07:50;;;;;;;0.80;0.80;;;;;;;;;;5290936;27;20507;-85
2024/04/16 11:10:18;;;;;;;0.80;0.80;;;;;;;;;;5289307;27;20535;-86
2024/04/16 11:12:46;;;;;;;0.80;0.80;;;;;;;;;;5278649;27;20451;-87
2024/04/16 11:15:14;;;;;;;0.90;0.90;;;;;;;;;;5291777;27;20487;-85
2024/04/16 11:17:41;;;;;;;1.00;1.00;;;;;;;;;;5259493;27;20511;-84
2024/04/16 11:20:10;;;;;;;0.80;0.80;;;;;;;;;;5259970;27;20561;-83
2024/04/16 11:22:37;;;;;;;1.33;1.33;;;;;;;;;;5246339;27;20553;-84
2024/04/16 11:25:14;;;;;;;0.70;0.70;;;;;;;;;;5287565;27;20458;-87
2024/04/16 11:27:43;;;;;;;0.70;0.70;;;;;;;;;;5286852;27;20553;-80
2024/04/16 11:30:15;;;;;;;1.03;1.03;;;;;;;;;;5274949;26;20438;-83
2024/04/16 11:32:44;;;;;;;0.73;0.73;;;;;;;;;;5270565;27;20464;-86
2024/04/16 11:35:12;;;;;;;0.70;0.70;;;;;;;;;;5276179;26;20528;-84
2024/04/16 11:37:40;;;;;;;1.37;1.10;;;;;;;;;;5241117;27;20491;-86
2024/04/16 11:40:09;;;;;;;3.27;2.00;;;;;;;;;;5257347;27;20491;-87
2024/04/16 11:42:37;;;;;;;0.77;0.77;;;;;;;;;;5296377;27;20495;-85
2024/04/16 11:45:14;;;;;;;0.90;0.90;;;;;;;;;;5265057;27;20474;-85
2024/04/16 11:47:41;;;;;;;0.90;0.90;;;;;;;;;;5249264;27;20450;-90
2024/04/16 11:50:10;;;;;;;0.70;0.70;;;;;;;;;;5252006;27;20548;-85
2024/04/16 11:52:38;;;;;;;0.70;0.70;;;;;;;;;;5293492;27;20449;-89
2024/04/16 11:55:06;;;;;;;0.70;0.70;;;;;;;;;;5309920;27;20845;-89
2024/04/16 11:57:33;;;;;;;0.60;0.60;;;;;;;;;;5280091;27;20890;-87
2024/04/16 12:00:01;;;;;;;0.60;0.60;;;;;;;;;;5306911;27;20220;-83
2024/04/16 12:02:29;;;;;;;0.80;0.80;;;;;;;;;;5259791;27;20446;-86
2024/04/16 12:04:59;;;;;;;0.70;0.70;;;;;;;;;;5265931;27;20519;-87
2024/04/16 12:07:26;;;;;;;1.00;1.00;;;;;;;;;;5292736;27;20520;-87
2024/04/16 12:09:58;;;;;;;0.60;0.60;;;;;;;;;;5283495;27;20559;-88
2024/04/16 12:12:25;;;;;;;0.77;0.77;;;;;;;;;;5268011;27;20517;-85
2024/04/16 12:14:53;;;;;;;0.60;0.60;;;;;;;;;;5295384;27;20543;-89
2024/04/16 12:17:22;;;;;;;0.70;0.70;;;;;;;;;;5257398;26;20504;-87
2024/04/16 12:19:51;;;;;;;0.70;0.70;;;;;;;;;;5296011;27;20456;-84
2024/04/16 12:22:20;;;;;;;0.90;0.90;;;;;;;;;;5272575;27;20427;-85
2024/04/16 12:24:49;;;;;;;0.60;0.60;;;;;;;;;;5259851;27;20457;-85
2024/04/16 12:27:17;;;;;;;0.60;0.60;;;;;;;;;;5296229;27;20444;-85
2024/04/16 12:29:44;;;;;;;0.60;0.60;;;;;;;;;;5265687;27;20506;-88
2024/04/16 12:32:12;;;;;;;0.70;0.70;;;;;;;;;;5264792;27;20506;-88
2024/04/16 12:34:44;;;;;;;0.70;0.70;;;;;;;;;;5264036;27;20452;-86
2024/04/16 12:37:12;;;;;;;0.70;0.70;;;;;;;;;;5299109;27;20228;-88
2024/04/16 12:39:44;;;;;;;0.70;0.70;;;;;;;;;;5251966;27;20568;-85
2024/04/16 12:42:13;;;;;;;0.80;0.80;;;;;;;;;;5263166;27;20543;-84
2024/04/16 12:44:42;;;;;;;0.70;0.70;;;;;;;;;;5320025;27;20440;-85
2024/04/16 12:47:12;;;;;;;4.23;1.53;;;;;;;;;;5280865;27;20506;-88
2024/04/16 12:49:40;;;;;;;0.60;0.60;;;;;;;;;;5276111;27;20452;-87
2024/04/16 12:52:11;;;;;;;0.60;0.60;;;;;;;;;;5283967;27;20699;-89
2024/04/16 12:54:44;;;;;;;0.60;0.60;;;;;;;;;;5265991;27;20628;-85
2024/04/16 12:57:15;;;;;;;0.80;0.80;;;;;;;;;;5364641;21;20503;-86
2024/04/16 12:59:42;;;;;;;0.63;0.63;;;;;;;;;;5301495;26;20509;-86
2024/04/16 13:02:10;;;;;;;0.60;0.60;;;;;;;;;;5338259;26;20474;-84
2024/04/16 13:04:37;;;;;;;0.60;0.60;;;;;;;;;;5536888;21;20522;-83
2024/04/16 13:07:06;;;;;;;0.70;0.70;;;;;;;;;;5332350;26;20420;-83
2024/04/16 13:09:33;;;;;;;0.70;0.70;;;;;;;;;;5338815;26;20443;-85
2024/04/16 13:12:03;;;;;;;0.70;0.70;;;;;;;;;;5308287;26;20422;-88
2024/04/16 13:14:31;;;;;;;0.80;0.80;;;;;;;;;;5502282;21;21173;-84
2024/04/16 13:17:03;;;;;;;0.73;0.73;;;;;;;;;;5289889;27;20467;-86
2024/04/16 13:19:31;;;;;;;0.80;0.80;;;;;;;;;;5324725;27;20470;-85
2024/04/16 13:21:59;;;;;;;0.70;0.70;;;;;;;;;;5296491;27;20519;-88
2024/04/16 13:24:27;;;;;;;0.80;0.80;;;;;;;;;;5314871;27;20443;-85
2024/04/16 13:26:54;;;;;;;1.23;1.23;;;;;;;;;;5296945;26;20455;-87
2024/04/16 13:29:22;;;;;;;0.60;0.60;;;;;;;;;;5323934;27;20546;-86
2024/04/16 13:31:50;;;;;;;0.70;0.70;;;;;;;;;;5310336;27;20541;-83
2024/04/16 13:34:18;;;;;;;1.27;1.20;;;;;;;;;;5283957;27;20416;-85
2024/04/16 13:36:46;;;;;;;0.70;0.70;;;;;;;;;;5311847;26;20492;-89
2024/04/16 13:39:13;;;;;;;0.60;0.60;;;;;;;;;;5323159;26;20486;-81
2024/04/16 13:41:41;;;;;;;0.60;0.60;;;;;;;;;;5327736;26;20459;-85
2024/04/16 13:44:08;;;;;;;0.60;0.60;;;;;;;;;;5327246;27;20447;-83
2024/04/16 13:46:36;;;;;;;0.70;0.70;;;;;;;;;;5325230;27;20486;-84
2024/04/16 13:49:03;;;;;;;0.60;0.60;;;;;;;;;;5273479;27;20495;-79
2024/04/16 13:51:30;;;;;;;0.70;0.70;;;;;;;;;;5323167;27;20470;-77
2024/04/16 13:53:58;;;;;;;0.70;0.70;;;;;;;;;;5335097;26;20223;-82
2024/04/16 13:56:25;;;;;;;0.70;0.70;;;;;;;;;;5336341;26;20237;-82
2024/04/16 13:58:53;;;;;;;0.65;0.65;;;;;;;;;;5335563;26;20233;-83
2024/04/16 14:01:20;;;;;;;0.73;0.73;;;;;;;;;;5326448;26;20275;-83
2024/04/16 14:03:48;;;;;;;0.70;0.70;;;;;;;;;;5320107;26;20227;-81
2024/04/16 14:06:16;;;;;;;1.00;1.00;;;;;;;;;;5304108;27;20221;-83
2024/04/16 14:08:43;;;;;;;0.75;0.75;;;;;;;;;;5324758;27;20225;-82
2024/04/16 14:11:11;;;;;;;0.60;0.60;;;;;;;;;;5319057;27;20252;-83
2024/04/16 14:13:38;;;;;;;0.95;0.95;;;;;;;;;;5324990;27;20238;-83
2024/04/16 14:16:06;;;;;;;1.00;1.00;;;;;;;;;;5293634;26;20237;-79
2024/04/16 14:18:35;;;;;;;0.60;0.60;;;;;;;;;;5314704;26;20286;-80
2024/04/16 14:21:02;;;;;;;0.60;0.60;;;;;;;;;;5331635;27;20445;-81
2024/04/16 14:23:32;;;;;;;0.65;0.65;;;;;;;;;;5331329;26;20440;-84
2024/04/16 14:25:59;;;;;;;0.60;0.60;;;;;;;;;;5333278;26;20283;-86
2024/04/16 14:28:30;;;;;;;1.20;1.10;;;;;;;;;;5312048;27;20231;-86
2024/04/16 14:30:58;;;;;;;1.48;1.42;;;;;;;;;;5326471;26;20235;-83
2024/04/16 14:33:25;;;;;;;0.90;0.90;;;;;;;;;;5298664;26;20274;-84
2024/04/16 14:35:53;;;;;;;1.20;1.20;;;;;;;;;;5325522;26;20238;-83
2024/04/16 14:38:20;;;;;;;0.80;0.80;;;;;;;;;;5322937;27;20218;-88
2024/04/16 14:40:47;;;;;;;0.73;0.73;;;;;;;;;;5308699;27;20265;-84
2024/04/16 14:43:15;;;;;;;0.70;0.70;;;;;;;;;;5293590;26;20389;-81
2024/04/16 14:45:42;;;;;;;0.80;0.80;;;;;;;;;;5314910;26;20302;-79
2024/04/16 14:48:10;;;;;;;0.90;0.90;;;;;;;;;;5321154;26;20225;-86
2024/04/16 14:50:41;;;;;;;0.90;0.90;;;;;;;;;;5320437;27;20228;-85
2024/04/16 14:53:08;;;;;;;0.70;0.70;;;;;;;;;;5312759;27;20351;-85
2024/04/16 14:55:35;;;;;;;0.60;0.60;;;;;;;;;;5294646;27;20222;-84